createdAt,value
2019-02-06T00:01:25.778Z,98.10
2019-02-06T00:03:55.105Z,98.30
2019-02-06T00:06:24.310Z,98.30
2019-02-06T00:08:53.972Z,98.40
2019-02-06T00:11:23.276Z,98.60
2019-02-06T00:13:52.530Z,98.80
2019-02-06T00:16:22.045Z,98.80
2019-02-06T00:18:53.441Z,98.80
2019-02-06T00:21:22.378Z,98.60
2019-02-06T00:23:51.482Z,98.80
2019-02-06T00:26:24.462Z,98.90
2019-02-06T00:28:56.725Z,98.90
2019-02-06T00:31:25.859Z,98.90
2019-02-06T00:33:55.492Z,98.90
2019-02-06T00:36:24.476Z,98.90
2019-02-06T00:38:54.167Z,99.00
2019-02-06T00:41:23.038Z,98.90
2019-02-06T00:43:52.481Z,98.80
2019-02-06T00:46:21.780Z,98.70
2019-02-06T00:48:50.615Z,98.60
2019-02-06T00:51:19.997Z,98.50
2019-02-06T00:53:49.146Z,98.60
2019-02-06T00:56:21.379Z,98.60
2019-02-06T00:58:50.315Z,98.50
2019-02-06T01:01:23.558Z,98.60
2019-02-06T01:03:52.769Z,98.40
2019-02-06T01:06:27.278Z,98.50
2019-02-06T01:08:56.641Z,98.30
2019-02-06T01:11:25.994Z,98.40
2019-02-06T01:13:54.787Z,98.40
2019-02-06T01:16:23.601Z,98.30
2019-02-06T01:18:52.889Z,98.80
2019-02-06T01:21:24.077Z,98.40
2019-02-06T01:23:53.326Z,98.30
2019-02-06T01:26:22.501Z,98.30
2019-02-06T01:28:53.407Z,98.30
2019-02-06T01:31:22.996Z,98.30
2019-02-06T01:33:52.263Z,98.30
2019-02-06T01:36:21.704Z,98.30
2019-02-06T01:38:51.028Z,98.40
2019-02-06T01:41:19.765Z,98.30
2019-02-06T01:43:48.918Z,98.30
2019-02-06T01:46:18.241Z,98.30
2019-02-06T01:48:47.370Z,98.30
2019-02-06T01:51:16.322Z,98.10
2019-02-06T01:53:47.409Z,98.40
2019-02-06T01:56:16.676Z,98.30
2019-02-06T01:58:45.914Z,98.40
2019-02-06T02:01:14.748Z,98.30
2019-02-06T02:03:43.564Z,98.30
2019-02-06T02:06:12.761Z,98.30
2019-02-06T02:08:44.037Z,98.50
2019-02-06T02:11:13.447Z,98.10
2019-02-06T02:13:42.842Z,98.10
2019-02-06T02:16:13.700Z,98.00
2019-02-06T02:18:42.374Z,98.00
2019-02-06T02:21:12.169Z,98.10
2019-02-06T02:23:41.816Z,98.00
2019-02-06T02:26:11.132Z,98.00
2019-02-06T02:28:40.380Z,97.90
2019-02-06T02:31:10.294Z,97.80
2019-02-06T02:33:39.466Z,97.50
2019-02-06T02:36:15.692Z,97.60
2019-02-06T02:38:39.704Z,97.60
2019-02-06T02:41:08.535Z,97.40
2019-02-06T02:43:37.462Z,97.40
2019-02-06T02:46:06.645Z,97.40
2019-02-06T02:48:35.423Z,97.10
2019-02-06T02:51:04.447Z,97.40
2019-02-06T02:53:35.581Z,97.40
2019-02-06T02:56:04.692Z,97.20
2019-02-06T02:58:34.067Z,97.10
2019-02-06T03:01:25.292Z,97.00
2019-02-06T03:03:56.338Z,97.00
2019-02-06T03:06:28.338Z,97.10
2019-02-06T03:08:56.670Z,97.20
2019-02-06T03:11:28.178Z,97.00
2019-02-06T03:14:01.392Z,96.90
2019-02-06T03:16:34.101Z,96.70
2019-02-06T03:19:06.302Z,96.70
2019-02-06T03:21:35.836Z,96.70
2019-02-06T03:24:04.807Z,96.70
2019-02-06T03:26:33.704Z,96.60
2019-02-06T03:29:03.114Z,96.60
2019-02-06T03:31:32.631Z,96.60
2019-02-06T03:34:04.782Z,96.70
2019-02-06T03:36:40.390Z,96.60
2019-02-06T03:39:04.945Z,96.50
2019-02-06T03:41:34.596Z,96.50
2019-02-06T03:44:03.413Z,96.50
2019-02-06T03:46:32.541Z,96.50
2019-02-06T03:49:01.338Z,96.50
2019-02-06T03:51:30.995Z,96.50
2019-02-06T03:54:00.027Z,96.30
2019-02-06T03:56:29.220Z,96.10
2019-02-06T03:58:58.585Z,96.00
2019-02-06T04:01:27.726Z,96.10
2019-02-06T04:03:56.507Z,96.00
2019-02-06T04:06:25.734Z,96.00
2019-02-06T04:08:55.106Z,96.00
2019-02-06T04:11:24.373Z,95.80
2019-02-06T04:13:53.531Z,95.60
2019-02-06T04:16:23.295Z,95.50
2019-02-06T04:18:52.476Z,95.60
2019-02-06T04:21:21.273Z,95.60
2019-02-06T04:23:50.155Z,95.70
2019-02-06T04:26:19.497Z,95.60
2019-02-06T04:28:49.100Z,95.80
2019-02-06T04:31:18.491Z,95.70
2019-02-06T04:33:47.619Z,95.70
2019-02-06T04:36:16.903Z,95.60
2019-02-06T04:38:45.635Z,95.60
2019-02-06T04:41:14.414Z,95.60
2019-02-06T04:43:44.013Z,95.40
2019-02-06T04:46:13.194Z,95.30
2019-02-06T04:48:42.521Z,95.40
2019-02-06T04:51:11.701Z,95.50
2019-02-06T04:53:41.052Z,95.50
2019-02-06T04:56:09.877Z,95.60
2019-02-06T04:58:39.186Z,95.20
2019-02-06T05:01:08.466Z,95.20
2019-02-06T05:03:37.789Z,95.20
2019-02-06T05:06:06.580Z,95.30
2019-02-06T05:08:35.562Z,95.20
2019-02-06T05:11:04.936Z,95.20
2019-02-06T05:13:34.454Z,95.10
2019-02-06T05:16:03.945Z,95.10
2019-02-06T05:18:33.621Z,95.20
2019-02-06T05:21:02.972Z,95.20
2019-02-06T05:23:32.504Z,95.10
2019-02-06T05:26:02.329Z,95.10
2019-02-06T05:28:31.779Z,95.10
2019-02-06T05:31:01.062Z,95.10
2019-02-06T05:33:31.071Z,94.90
2019-02-06T05:36:00.261Z,94.90
2019-02-06T05:38:30.440Z,94.80
2019-02-06T05:40:59.220Z,94.50
2019-02-06T05:43:29.133Z,94.80
2019-02-06T05:46:03.575Z,94.40
2019-02-06T05:48:33.941Z,94.50
2019-02-06T05:51:03.071Z,94.50
2019-02-06T05:53:32.177Z,94.50
2019-02-06T05:56:02.264Z,94.40
2019-02-06T05:58:31.128Z,94.50
2019-02-06T06:01:00.651Z,94.40
2019-02-06T06:03:30.945Z,94.40
2019-02-06T06:05:59.970Z,94.50
2019-02-06T06:08:29.838Z,94.40
2019-02-06T06:10:59.314Z,94.50
2019-02-06T06:13:28.372Z,94.40
2019-02-06T06:15:57.368Z,94.20
2019-02-06T06:18:26.969Z,94.00
2019-02-06T06:20:56.569Z,93.90
2019-02-06T06:23:25.661Z,94.00
2019-02-06T06:25:55.294Z,94.00
2019-02-06T06:28:24.702Z,93.80
2019-02-06T06:30:54.538Z,93.90
2019-02-06T06:33:24.317Z,93.90
2019-02-06T06:35:54.641Z,93.90
2019-02-06T06:38:23.732Z,93.80
2019-02-06T06:40:52.596Z,93.80
2019-02-06T06:43:21.903Z,94.00
2019-02-06T06:45:51.300Z,94.10
2019-02-06T06:48:20.639Z,93.90
2019-02-06T06:50:50.702Z,94.10
2019-02-06T06:53:20.763Z,94.00
2019-02-06T06:55:50.358Z,94.30
2019-02-06T06:58:19.772Z,93.70
2019-02-06T07:00:49.753Z,93.70
2019-02-06T07:03:19.575Z,93.60
2019-02-06T07:05:49.166Z,93.50
2019-02-06T07:08:18.806Z,93.50
2019-02-06T07:10:48.724Z,93.40
2019-02-06T07:13:18.450Z,93.40
2019-02-06T07:15:48.037Z,93.30
2019-02-06T07:18:17.061Z,93.30
2019-02-06T07:20:46.943Z,93.20
2019-02-06T07:23:15.942Z,93.10
2019-02-06T07:25:45.606Z,93.00
2019-02-06T07:28:15.650Z,92.80
2019-02-06T07:30:45.105Z,92.80
2019-02-06T07:33:15.367Z,92.60
2019-02-06T07:35:45.273Z,92.60
2019-02-06T07:38:23.959Z,92.60
2019-02-06T07:40:48.118Z,92.40
2019-02-06T07:43:17.658Z,92.60
2019-02-06T07:45:47.115Z,92.50
2019-02-06T07:48:17.013Z,92.50
2019-02-06T07:50:46.458Z,92.60
2019-02-06T07:53:15.962Z,92.60
2019-02-06T07:55:45.268Z,92.40
2019-02-06T07:58:15.096Z,92.40
2019-02-06T08:00:44.668Z,92.50
2019-02-06T08:03:14.855Z,92.40
2019-02-06T08:05:45.450Z,92.30
2019-02-06T08:08:14.661Z,91.90
2019-02-06T08:10:44.030Z,91.70
2019-02-06T08:13:13.493Z,91.80
2019-02-06T08:15:45.032Z,91.80
2019-02-06T08:18:17.050Z,91.70
2019-02-06T08:20:46.600Z,91.70
2019-02-06T08:23:16.068Z,91.60
2019-02-06T08:25:45.545Z,91.20
2019-02-06T08:28:15.229Z,91.00
2019-02-06T08:30:45.055Z,91.00
2019-02-06T08:33:15.284Z,90.80
2019-02-06T08:35:44.995Z,90.80
2019-02-06T08:38:13.907Z,91.50
2019-02-06T08:40:43.392Z,91.40
2019-02-06T08:43:13.560Z,91.60
2019-02-06T08:45:43.482Z,91.30
2019-02-06T08:48:12.843Z,91.60
2019-02-06T08:50:43.021Z,91.80
2019-02-06T08:53:12.676Z,92.20
2019-02-06T08:55:42.927Z,92.90
2019-02-06T08:58:18.542Z,93.40
2019-02-06T09:00:48.251Z,93.30
2019-02-06T09:03:18.576Z,93.30
2019-02-06T09:05:49.205Z,93.50
2019-02-06T09:08:20.393Z,93.50
2019-02-06T09:10:50.612Z,94.20
2019-02-06T09:13:20.527Z,93.40
2019-02-06T09:15:51.006Z,93.20
2019-02-06T09:18:20.639Z,93.10
2019-02-06T09:20:52.756Z,92.80
2019-02-06T09:23:21.418Z,92.50
2019-02-06T09:25:51.200Z,92.20
2019-02-06T09:28:22.872Z,91.80
2019-02-06T09:30:53.625Z,90.60
2019-02-06T09:33:23.595Z,89.60
2019-02-06T09:35:54.208Z,89.30
2019-02-06T09:38:25.323Z,89.10
2019-02-06T09:40:55.537Z,90.40
2019-02-06T09:43:27.463Z,90.10
2019-02-06T09:49:38.222Z,91.00
2019-02-06T09:52:07.951Z,91.40
2019-02-06T09:54:38.330Z,90.80
2019-02-06T09:57:09.110Z,90.50
2019-02-06T09:59:39.847Z,89.90
2019-02-06T10:02:09.808Z,89.70
2019-02-06T10:04:40.665Z,89.80
2019-02-06T10:07:10.776Z,90.00
2019-02-06T10:09:40.416Z,90.00
2019-02-06T10:12:12.006Z,87.90
2019-02-06T10:14:43.073Z,88.20
2019-02-06T10:17:18.971Z,88.20
2019-02-06T10:19:49.218Z,87.40
2019-02-06T10:22:18.809Z,87.50
2019-02-06T10:24:49.654Z,86.50
2019-02-06T10:27:19.282Z,86.60
2019-02-06T10:29:50.124Z,85.70
2019-02-06T10:32:20.300Z,85.20
2019-02-06T10:34:50.900Z,84.90
2019-02-06T10:37:20.787Z,85.30
2019-02-06T10:39:51.627Z,85.10
2019-02-06T10:42:20.975Z,84.80
2019-02-06T10:44:50.096Z,83.80
2019-02-06T10:47:20.148Z,82.80
2019-02-06T10:49:51.443Z,80.90
2019-02-06T10:52:22.350Z,81.60
2019-02-06T10:54:51.667Z,80.80
2019-02-06T10:57:20.715Z,80.00
2019-02-06T10:59:50.289Z,77.40
2019-02-06T11:02:19.709Z,77.40
2019-02-06T11:04:48.693Z,76.80
2019-02-06T11:07:17.461Z,76.40
2019-02-06T11:09:46.904Z,77.30
2019-02-06T11:12:15.659Z,75.60
2019-02-06T11:14:44.295Z,75.20
2019-02-06T11:17:13.159Z,75.00
2019-02-06T11:19:44.536Z,74.70
2019-02-06T11:22:13.882Z,75.40
2019-02-06T11:24:43.311Z,74.30
2019-02-06T11:27:13.326Z,74.10
2019-02-06T11:29:48.273Z,74.00
2019-02-06T11:32:17.192Z,74.90
2019-02-06T11:34:48.088Z,73.80
2019-02-06T11:37:17.733Z,72.70
2019-02-06T11:39:57.502Z,72.20
2019-02-06T11:42:22.628Z,69.70
2019-02-06T11:44:52.529Z,69.90
2019-02-06T11:47:22.818Z,70.10
2019-02-06T11:49:54.091Z,69.10
2019-02-06T11:52:26.067Z,67.70
2019-02-06T11:54:55.372Z,66.10
2019-02-06T11:57:25.220Z,65.90
2019-02-06T11:59:54.585Z,64.60
2019-02-06T12:02:36.430Z,65.40
2019-02-06T12:04:55.748Z,64.50
2019-02-06T12:07:25.503Z,65.30
2019-02-06T12:09:55.329Z,66.30
2019-02-06T12:12:26.168Z,66.60
2019-02-06T12:14:55.930Z,67.80
2019-02-06T12:17:26.771Z,67.40
2019-02-06T12:19:56.242Z,66.50
2019-02-06T12:22:25.533Z,67.20
2019-02-06T12:24:55.999Z,65.30
2019-02-06T12:27:27.868Z,66.30
2019-02-06T12:29:58.569Z,65.50
2019-02-06T12:32:28.339Z,65.80
2019-02-06T12:34:57.967Z,66.70
2019-02-06T12:37:29.548Z,66.60
2019-02-06T12:39:59.472Z,65.90
2019-02-06T12:42:29.030Z,66.20
2019-02-06T12:44:59.207Z,65.90
2019-02-06T12:47:28.756Z,65.70
2019-02-06T12:49:58.315Z,65.50
2019-02-06T12:52:28.190Z,65.00
2019-02-06T12:54:58.498Z,66.70
2019-02-06T12:57:36.300Z,66.90
2019-02-06T12:59:59.494Z,67.50
2019-02-06T13:02:29.620Z,67.60
2019-02-06T13:04:59.393Z,68.10
2019-02-06T13:07:29.324Z,67.20
2019-02-06T13:09:59.044Z,67.90
2019-02-06T13:12:29.208Z,67.00
2019-02-06T13:14:59.179Z,67.70
2019-02-06T13:17:28.976Z,66.50
2019-02-06T13:19:59.018Z,66.70
2019-02-06T13:22:29.643Z,67.50
2019-02-06T13:24:58.664Z,68.30
2019-02-06T13:27:27.629Z,69.10
2019-02-06T13:29:57.481Z,68.90
2019-02-06T13:32:27.569Z,68.90
2019-02-06T13:34:58.007Z,68.70
2019-02-06T13:37:27.957Z,69.30
2019-02-06T13:39:57.407Z,69.50
2019-02-06T13:42:26.333Z,70.10
2019-02-06T13:44:56.297Z,70.60
2019-02-06T13:47:26.059Z,70.40
2019-02-06T13:49:54.943Z,71.00
2019-02-06T13:52:24.995Z,71.50
2019-02-06T13:54:54.632Z,72.30
2019-02-06T13:57:33.489Z,72.80
2019-02-06T13:59:54.719Z,73.40
2019-02-06T14:02:24.143Z,76.00
2019-02-06T14:04:54.276Z,74.60
2019-02-06T14:07:24.063Z,75.30
2019-02-06T14:09:55.092Z,75.80
2019-02-06T14:12:26.295Z,76.00
2019-02-06T14:14:56.115Z,76.30
2019-02-06T14:17:25.739Z,77.20
2019-02-06T14:19:56.088Z,77.80
2019-02-06T14:22:25.640Z,78.60
2019-02-06T14:24:55.738Z,79.20
2019-02-06T14:27:28.181Z,78.90
2019-02-06T14:30:35.710Z,79.40
2019-02-06T14:33:19.710Z,79.60
2019-02-06T14:35:52.469Z,79.00
2019-02-06T14:38:44.452Z,79.90
2019-02-06T14:41:21.768Z,80.00
2019-02-06T14:44:09.285Z,80.80
2019-02-06T14:47:11.789Z,81.00
2019-02-06T14:49:46.872Z,82.10
2019-02-06T14:52:24.810Z,82.00
2019-02-06T14:55:06.526Z,82.10
2019-02-06T14:58:05.764Z,82.70
2019-02-06T15:01:02.829Z,82.10
2019-02-06T15:03:38.780Z,82.90
2019-02-06T15:06:31.050Z,83.20
2019-02-06T15:09:25.616Z,83.50
2019-02-06T15:11:57.961Z,83.50
2019-02-06T15:14:32.784Z,83.90
2019-02-06T15:17:23.162Z,85.20
2019-02-06T15:20:07.857Z,85.20
2019-02-06T15:23:01.528Z,86.70
2019-02-06T15:25:45.447Z,86.70
2019-02-06T15:28:37.368Z,86.60
2019-02-06T15:31:27.780Z,86.10
2019-02-06T15:34:30.478Z,86.00
2019-02-06T15:37:32.198Z,86.20
2019-02-06T15:40:27.525Z,86.40
2019-02-06T15:43:10.839Z,86.60
2019-02-06T15:45:52.740Z,86.80
2019-02-06T15:48:33.871Z,87.50
2019-02-06T15:51:36.494Z,88.40
2019-02-06T15:54:32.287Z,88.50
2019-02-06T15:57:11.606Z,88.70
2019-02-06T15:59:59.599Z,89.80
2019-02-06T16:02:41.354Z,88.60
2019-02-06T16:05:31.519Z,88.70
2019-02-06T16:08:10.372Z,88.80
2019-02-06T16:11:09.980Z,89.10
2019-02-06T16:13:50.562Z,89.10
2019-02-06T16:16:35.647Z,90.00
2019-02-06T16:19:39.118Z,89.90
2019-02-06T16:22:32.258Z,90.20
2019-02-06T16:25:04.689Z,90.00
2019-02-06T16:27:50.239Z,90.30
2019-02-06T16:30:34.686Z,90.60
2019-02-06T16:33:07.961Z,90.70
2019-02-06T16:35:58.403Z,90.70
2019-02-06T16:38:39.776Z,91.00
2019-02-06T16:41:39.864Z,91.30
2019-02-06T16:44:29.161Z,91.50
2019-02-06T16:47:07.572Z,91.80
2019-02-06T16:49:57.145Z,91.70
2019-02-06T16:52:33.086Z,92.00
2019-02-06T16:55:14.812Z,91.90
2019-02-06T16:57:59.286Z,91.50
2019-02-06T17:00:43.810Z,91.50
2019-02-06T17:03:28.061Z,91.30
2019-02-06T17:05:59.674Z,91.00
2019-02-06T17:08:52.086Z,90.80
2019-02-06T17:11:37.015Z,90.50
2019-02-06T17:14:29.548Z,90.50
2019-02-06T17:17:07.603Z,90.20
2019-02-06T17:19:59.447Z,90.30
2019-02-06T17:22:52.150Z,90.30
2019-02-06T17:25:31.222Z,90.00
2019-02-06T17:28:16.677Z,89.70
2019-02-06T17:30:58.585Z,89.60
2019-02-06T17:33:52.840Z,89.60
2019-02-06T17:36:35.104Z,89.90
2019-02-06T17:39:28.009Z,90.00
2019-02-06T17:42:18.625Z,90.00
2019-02-06T17:44:53.690Z,90.20
2019-02-06T17:47:35.255Z,90.30
2019-02-06T17:50:29.502Z,90.10
2019-02-06T17:53:22.466Z,90.50
2019-02-06T17:55:54.164Z,90.50
2019-02-06T17:58:25.145Z,90.70
2019-02-06T18:00:59.005Z,90.80
2019-02-06T18:03:31.136Z,90.50
2019-02-06T18:06:01.680Z,90.90
2019-02-06T18:08:32.061Z,90.80
2019-02-06T18:11:02.772Z,90.70
2019-02-06T18:13:43.723Z,91.10
2019-02-06T18:16:21.112Z,91.20
2019-02-06T18:18:46.922Z,91.30
2019-02-06T18:21:17.258Z,91.40
2019-02-06T18:23:49.532Z,91.10
2019-02-06T18:26:19.644Z,91.30
2019-02-06T18:28:50.802Z,91.40
2019-02-06T18:31:23.270Z,91.40
2019-02-06T18:33:53.470Z,91.60
2019-02-06T18:36:23.323Z,91.60
2019-02-06T18:38:53.086Z,91.50
2019-02-06T18:41:22.885Z,91.10
2019-02-06T18:43:53.074Z,91.60
2019-02-06T18:46:24.106Z,91.70
2019-02-06T18:48:54.396Z,91.90
2019-02-06T18:51:28.321Z,92.10
2019-02-06T18:53:57.595Z,92.30
2019-02-06T19:00:17.917Z,92.60
2019-02-06T19:02:50.218Z,92.50
2019-02-06T19:05:23.732Z,92.80
2019-02-06T19:07:57.362Z,92.60
2019-02-06T19:10:29.231Z,93.00
2019-02-06T19:12:59.347Z,92.90
2019-02-06T19:15:29.903Z,92.90
2019-02-06T19:18:00.864Z,93.00
2019-02-06T19:20:32.080Z,92.90
2019-02-06T19:23:01.804Z,92.90
2019-02-06T19:25:32.020Z,93.00
2019-02-06T19:28:03.264Z,93.00
2019-02-06T19:30:36.488Z,93.10
2019-02-06T19:33:06.164Z,93.30
2019-02-06T19:35:35.626Z,93.10
2019-02-06T19:38:05.053Z,93.00
2019-02-06T19:40:34.686Z,92.90
2019-02-06T19:43:05.414Z,93.20
2019-02-06T19:45:35.520Z,93.00
2019-02-06T19:48:15.764Z,93.40
2019-02-06T19:50:44.021Z,93.40
2019-02-06T19:53:13.740Z,93.40
2019-02-06T19:55:43.635Z,93.30
2019-02-06T19:58:13.201Z,93.40
2019-02-06T20:00:42.738Z,93.40
2019-02-06T20:03:11.719Z,93.00
2019-02-06T20:05:41.332Z,93.70
2019-02-06T20:08:10.325Z,93.40
2019-02-06T20:10:43.610Z,93.40
2019-02-06T20:13:14.681Z,93.50
2019-02-06T20:15:44.930Z,93.50
2019-02-06T20:18:14.343Z,93.70
2019-02-06T20:20:43.859Z,93.60
2019-02-06T20:23:14.416Z,93.80
2019-02-06T20:25:45.202Z,93.80
2019-02-06T20:28:14.918Z,93.90
2019-02-06T20:30:44.174Z,94.00
2019-02-06T20:33:13.926Z,94.00
2019-02-06T20:35:45.367Z,94.00
2019-02-06T20:38:15.669Z,94.00
2019-02-06T20:40:45.463Z,94.00
2019-02-06T20:43:22.094Z,94.20
2019-02-06T20:45:49.774Z,94.10
2019-02-06T20:48:19.048Z,93.80
2019-02-06T20:50:48.184Z,93.90
2019-02-06T20:53:17.434Z,93.70
2019-02-06T20:55:46.839Z,94.20
2019-02-06T20:58:16.338Z,94.20
2019-02-06T21:00:46.711Z,94.30
2019-02-06T21:03:16.247Z,94.00
2019-02-06T21:05:46.131Z,94.20
2019-02-06T21:08:15.459Z,94.30
2019-02-06T21:10:44.969Z,94.40
2019-02-06T21:13:14.020Z,94.50
2019-02-06T21:15:42.945Z,94.70
2019-02-06T21:18:12.027Z,94.40
2019-02-06T21:20:41.979Z,94.50
2019-02-06T21:23:11.553Z,94.60
2019-02-06T21:25:42.461Z,94.70
2019-02-06T21:28:13.311Z,94.60
2019-02-06T21:30:50.504Z,94.70
2019-02-06T21:33:20.634Z,94.70
2019-02-06T21:35:50.501Z,94.90
2019-02-06T21:38:20.603Z,94.70
2019-02-06T21:40:50.150Z,94.70
2019-02-06T21:43:19.376Z,94.50
2019-02-06T21:45:48.976Z,94.10
2019-02-06T21:48:19.048Z,94.30
2019-02-06T21:50:48.329Z,94.20
2019-02-06T21:53:21.728Z,94.40
2019-02-06T21:55:51.455Z,94.30
2019-02-06T21:58:20.648Z,94.40
2019-02-06T22:00:49.940Z,94.60
2019-02-06T22:03:19.790Z,94.60
2019-02-06T22:05:49.522Z,94.70
2019-02-06T22:08:19.035Z,94.40
2019-02-06T22:10:49.297Z,94.70
2019-02-06T22:13:19.006Z,94.70
2019-02-06T22:15:48.370Z,94.60
2019-02-06T22:18:18.231Z,94.50
2019-02-06T22:20:48.067Z,94.50
2019-02-06T22:23:17.624Z,94.70
2019-02-06T22:25:46.915Z,94.60
2019-02-06T22:28:16.228Z,94.50
2019-02-06T22:30:45.901Z,94.50
2019-02-06T22:33:15.573Z,94.70
2019-02-06T22:35:44.516Z,94.60
2019-02-06T22:38:13.434Z,94.70
2019-02-06T22:40:42.495Z,94.70
2019-02-06T22:43:11.876Z,94.90
2019-02-06T22:45:41.287Z,94.40
2019-02-06T22:48:10.815Z,94.40
2019-02-06T22:50:40.362Z,94.40
2019-02-06T22:53:10.218Z,94.40
2019-02-06T22:55:40.101Z,94.10
2019-02-06T22:58:09.289Z,94.30
2019-02-06T23:00:55.301Z,94.50
2019-02-06T23:03:33.124Z,94.90
2019-02-06T23:06:02.829Z,94.60
2019-02-06T23:08:32.486Z,94.70
2019-02-06T23:11:01.685Z,94.80
2019-02-06T23:13:32.248Z,94.60
2019-02-06T23:16:02.091Z,94.60
2019-02-06T23:18:31.570Z,94.40
2019-02-06T23:21:00.933Z,94.30
2019-02-06T23:23:29.973Z,93.90
2019-02-06T23:25:59.357Z,93.70
2019-02-06T23:28:28.778Z,93.90
2019-02-06T23:30:57.627Z,93.80
2019-02-06T23:33:26.860Z,93.50
2019-02-06T23:35:55.720Z,93.30
2019-02-06T23:38:24.697Z,93.10
2019-02-06T23:40:54.080Z,92.90
2019-02-06T23:43:23.686Z,92.80
2019-02-06T23:45:52.520Z,92.90
2019-02-06T23:48:21.922Z,92.70
2019-02-06T23:50:50.985Z,92.70
2019-02-06T23:53:20.171Z,92.60
2019-02-06T23:55:49.532Z,92.10
2019-02-06T23:58:19.003Z,92.30
